Cleveland, TN

1:46 AM EST on December 29, 2014 (GMT -0500)
Cleveland | Change Station
CLOSE
Current Station
Personal Weather Station
Location: Cleveland, TN
Elevation: 896 ft
Nearby Weather Stations

Elev 896 ft 35.19 °N, 84.86 °W | Updated 9 minutes ago

Rain
Rain
48.2 °F
Feels Like 48 °F
N
1.7
Wind Variable Wind from WNW

Today
High -- | Low -- °F
--% Chance of Precip.
Yesterday
High -- | Low -- °F
Precip. -- in
7:47 AM 5:36 PM
First Quarter, 56% visible
Pressure 30.08 in
Visibility 8.0 miles
Clouds Scattered Clouds 600 ft
Mostly Cloudy 3600 ft
Overcast 7000 ft
Windchill 48 °F
Dew Point 48 °F
Humidity 99%
Rainfall 0.06 in
Snow Depth Not available.
UV 0 out of 12
Pollen .10 out of 12
Air Quality Not available.
Flu Activity Not available.
METAR KRZR 290635Z AUTO 01003KT 8SM SCT006 BKN036 OVC070 09/08 A3008 RMK

More Conditions Fewer Conditions

Pressure 30.08 in
Visibility 8.0 miles
Clouds Scattered Clouds 600 ft
Mostly Cloudy 3600 ft
Overcast 7000 ft
Windchill 48 °F
Dew Point 48 °F
Humidity 99%
Rainfall 0.06 in
Snow Depth Not available.
UV 0 out of 12
Pollen .10 out of 12
Air Quality Not available.
Flu Activity Not available.
METAR KRZR 290635Z AUTO 01003KT 8SM SCT006 BKN036 OVC070 09/08 A3008 RMK

More Conditions Fewer Conditions

10-Day Weather Forecast

Almanac

Astronomy

Dec. 29, 2014 Rise Set
Actual Time
Civil Twilight
Nautical Twilight
Astronomical Twilight
Moon
Length of Visible Light
Length of Day
Tomorrow will be .
, % of the Moon is Illuminated

Today's Extremes

State Highs State Lows

Community

WunderPhotos

Upload Photos

1,781,546 photos uploaded!

WunderBlogs® & News

Nearby

Air Quality

  Air Quality AQ Index Pollutant
Not available.

Snow Depth

Station Depth Elevation

Earthquake Activity

City Distance Mag. Time & Date
Minimum magnitude displayed is 2.5.

Coastal Water Temperatures

Place Temperature

Nearby Weather Stations